createdAt,value
2023-03-12T00:03:10.562Z,98275.13
2023-03-12T00:08:32.398Z,98270.63
2023-03-12T00:13:57.048Z,98286.38
2023-03-12T00:19:18.847Z,98286.38
2023-03-12T00:24:40.566Z,98284.72
2023-03-12T00:30:02.886Z,98286.44
2023-03-12T00:35:25.635Z,98274.75
2023-03-12T00:40:47.635Z,98279.78
2023-03-12T00:46:09.366Z,98272.28
2023-03-12T00:51:31.052Z,98272.81
2023-03-12T00:56:52.735Z,98265.19
2023-03-12T01:02:14.436Z,98267.66
2023-03-12T01:07:36.336Z,98269.59
2023-03-12T01:12:58.315Z,98261.00
2023-03-12T01:18:20.291Z,98273.63
2023-03-12T01:23:42.046Z,98260.44
2023-03-12T01:29:03.784Z,98267.22
2023-03-12T01:34:25.556Z,98269.41
2023-03-12T01:39:47.286Z,98266.59
2023-03-12T01:45:46.701Z,98270.75
2023-03-12T01:51:12.313Z,98272.94
2023-03-12T01:56:36.592Z,98275.94
2023-03-12T02:01:59.600Z,98273.75
2023-03-12T02:07:21.346Z,98271.47
2023-03-12T02:12:43.305Z,98270.97
2023-03-12T02:18:07.650Z,98263.31
2023-03-12T02:23:52.321Z,98262.66
2023-03-12T02:29:14.533Z,98263.94
2023-03-12T02:34:36.326Z,98262.91
2023-03-12T02:40:08.899Z,98270.25
2023-03-12T02:45:31.097Z,98262.38
2023-03-12T02:50:52.808Z,98261.94
2023-03-12T02:56:14.571Z,98263.28
2023-03-12T03:01:36.701Z,98258.19
2023-03-12T03:06:58.775Z,98259.78
2023-03-12T03:12:20.600Z,98253.91
2023-03-12T03:17:42.316Z,98254.72
2023-03-12T03:23:04.584Z,98239.69
2023-03-12T03:28:28.156Z,98228.31
2023-03-12T03:33:50.190Z,98226.72
2023-03-12T03:39:11.968Z,98230.38
2023-03-12T03:44:34.796Z,98226.34
2023-03-12T03:49:56.534Z,98231.25
2023-03-12T03:55:18.545Z,98233.75
2023-03-12T04:00:40.266Z,98236.50
2023-03-12T04:06:05.458Z,98222.97
2023-03-12T04:11:27.486Z,98214.75
2023-03-12T04:16:49.280Z,98215.53
2023-03-12T04:22:11.408Z,98225.06
2023-03-12T04:27:34.313Z,98220.38
2023-03-12T04:32:56.098Z,98221.31
2023-03-12T04:38:18.302Z,98222.09
2023-03-12T04:43:40.239Z,98224.94
2023-03-12T04:49:02.743Z,98222.56
2023-03-12T04:54:24.576Z,98220.81
2023-03-12T04:59:48.076Z,98223.78
2023-03-12T05:05:11.607Z,98213.44
2023-03-12T05:10:33.389Z,98209.13
2023-03-12T05:15:55.376Z,98210.88
2023-03-12T05:21:19.573Z,98203.03
2023-03-12T05:26:41.407Z,98201.94
2023-03-12T05:32:03.632Z,98211.31
2023-03-12T05:37:25.454Z,98204.75
2023-03-12T05:42:47.175Z,98212.81
2023-03-12T05:48:08.908Z,98219.06
2023-03-12T05:53:30.716Z,98222.31
2023-03-12T05:58:52.509Z,98228.81
2023-03-12T06:04:14.349Z,98228.00
2023-03-12T06:09:36.179Z,98237.81
2023-03-12T06:14:58.272Z,98233.69
2023-03-12T06:20:20.100Z,98224.63
2023-03-12T06:25:45.021Z,98217.91
2023-03-12T06:31:07.908Z,98209.69
2023-03-12T06:36:29.859Z,98208.59
2023-03-12T06:41:51.566Z,98200.75
2023-03-12T06:47:13.631Z,98202.00
2023-03-12T06:52:36.061Z,98203.25
2023-03-12T06:57:57.750Z,98198.00
2023-03-12T07:03:19.925Z,98198.50
2023-03-12T07:08:42.048Z,98203.78
2023-03-12T07:14:03.806Z,98203.31
2023-03-12T07:19:25.564Z,98199.38
2023-03-12T07:24:47.276Z,98218.50
2023-03-12T07:30:09.703Z,98213.31
2023-03-12T07:35:32.852Z,98209.22
2023-03-12T07:40:57.125Z,98209.16
2023-03-12T07:46:18.929Z,98209.50
2023-03-12T07:51:40.664Z,98190.13
2023-03-12T07:57:02.504Z,98192.41
2023-03-12T08:02:24.363Z,98201.53
2023-03-12T08:07:46.904Z,98206.09
2023-03-12T08:13:08.634Z,98210.78
2023-03-12T08:18:30.435Z,98206.88
2023-03-12T08:23:52.189Z,98201.81
2023-03-12T08:29:14.264Z,98220.78
2023-03-12T08:34:36.559Z,98210.63
2023-03-12T08:39:58.932Z,98217.63
2023-03-12T08:45:20.663Z,98222.28
2023-03-12T08:50:42.397Z,98213.09
2023-03-12T08:56:04.970Z,98216.97
2023-03-12T09:01:26.725Z,98215.72
2023-03-12T09:06:48.505Z,98195.00
2023-03-12T09:12:10.832Z,98206.44
2023-03-12T09:17:32.567Z,98205.09
2023-03-12T09:22:54.262Z,98205.75
2023-03-12T09:28:16.760Z,98209.38
2023-03-12T09:33:39.490Z,98204.56
2023-03-12T09:39:02.353Z,98210.34
2023-03-12T09:44:44.436Z,98216.75
2023-03-12T09:50:20.188Z,98216.00
2023-03-12T09:55:45.113Z,98213.69
2023-03-12T10:01:39.260Z,98209.50
2023-03-12T10:07:12.603Z,98218.34
2023-03-12T10:12:51.981Z,98219.94
2023-03-12T10:18:24.317Z,98220.06
2023-03-12T10:24:08.481Z,98214.69
2023-03-12T10:29:35.679Z,98221.09
2023-03-12T10:35:04.310Z,98216.13
2023-03-12T10:40:29.429Z,98225.78
2023-03-12T10:46:16.781Z,98239.44
2023-03-12T10:52:20.095Z,98246.56
2023-03-12T10:57:42.909Z,98252.47
2023-03-12T11:03:20.680Z,98251.97
2023-03-12T11:08:43.111Z,98253.75
2023-03-12T11:14:12.984Z,98249.63
2023-03-12T11:19:35.462Z,98255.97
2023-03-12T11:25:07.418Z,98256.72
2023-03-12T11:30:57.300Z,98251.59
2023-03-12T11:36:35.992Z,98250.69
2023-03-12T11:42:21.410Z,98251.75
2023-03-12T11:48:05.098Z,98235.72
2023-03-12T11:54:00.897Z,98239.59
2023-03-12T11:59:39.012Z,98240.72
2023-03-12T12:05:22.859Z,98241.88
2023-03-12T12:11:11.377Z,98236.13
2023-03-12T12:16:40.268Z,98220.00
2023-03-12T12:22:41.760Z,98221.88
2023-03-12T12:28:12.820Z,98215.06
2023-03-12T12:33:40.664Z,98211.44
2023-03-12T12:39:18.804Z,98207.69
2023-03-12T12:44:53.558Z,98195.56
2023-03-12T12:50:22.286Z,98187.47
2023-03-12T12:55:55.647Z,98194.91
2023-03-12T13:01:18.252Z,98189.50
2023-03-12T13:06:58.144Z,98195.56
2023-03-12T13:12:41.985Z,98194.63
2023-03-12T13:18:24.216Z,98207.59
2023-03-12T13:24:02.958Z,98207.41
2023-03-12T13:29:32.850Z,98208.88
2023-03-12T13:34:57.776Z,98216.81
2023-03-12T13:40:31.545Z,98211.47
2023-03-12T13:46:06.764Z,98201.19
2023-03-12T13:51:28.880Z,98201.38
2023-03-12T13:57:04.423Z,98192.91
2023-03-12T14:02:34.666Z,98199.34
2023-03-12T14:08:24.663Z,98175.50
2023-03-12T14:14:25.443Z,98197.25
2023-03-12T14:19:52.523Z,98208.84
2023-03-12T14:25:21.905Z,98201.22
2023-03-12T14:30:57.245Z,98231.00
2023-03-12T14:36:22.691Z,98219.16
2023-03-12T14:41:49.077Z,98216.44
2023-03-12T14:47:17.238Z,98190.00
2023-03-12T14:52:39.026Z,98193.94
2023-03-12T14:58:17.018Z,98194.69
2023-03-12T15:03:44.274Z,98202.25
2023-03-12T15:09:07.510Z,98207.78
2023-03-12T15:14:34.845Z,98212.63
2023-03-12T15:19:57.324Z,98217.56
2023-03-12T15:25:24.644Z,98213.28
2023-03-12T15:30:46.468Z,98211.06
2023-03-12T15:36:17.479Z,98210.63
2023-03-12T15:41:48.683Z,98209.34
2023-03-12T15:47:15.043Z,98203.50
2023-03-12T15:52:36.919Z,98204.44
2023-03-12T15:57:59.806Z,98209.75
2023-03-12T16:03:22.078Z,98211.66
2023-03-12T16:08:46.699Z,98206.31
2023-03-12T16:14:25.723Z,98197.72
2023-03-12T16:19:47.511Z,98193.44
2023-03-12T16:25:11.979Z,98202.19
2023-03-12T16:30:36.178Z,98199.72
2023-03-12T16:35:57.975Z,98194.16
2023-03-12T16:41:20.045Z,98200.63
2023-03-12T16:46:41.832Z,98214.56
2023-03-12T16:52:16.176Z,98209.53
2023-03-12T16:57:41.600Z,98203.66
2023-03-12T17:03:05.933Z,98205.84
2023-03-12T17:08:27.818Z,98197.78
2023-03-12T17:13:57.485Z,98202.56
2023-03-12T17:19:19.494Z,98202.13
2023-03-12T17:24:41.320Z,98204.84
2023-03-12T17:30:03.314Z,98211.72
2023-03-12T17:35:25.107Z,98220.59
2023-03-12T17:40:46.858Z,98224.03
2023-03-12T17:46:10.211Z,98226.41
2023-03-12T17:51:31.936Z,98217.03
2023-03-12T17:56:53.666Z,98245.06
2023-03-12T18:02:15.463Z,98239.91
2023-03-12T18:07:38.077Z,98235.53
2023-03-12T18:12:59.884Z,98239.28
2023-03-12T18:18:22.771Z,98240.06
2023-03-12T18:23:46.045Z,98238.28
2023-03-12T18:29:07.912Z,98246.19
2023-03-12T18:34:29.921Z,98255.53
2023-03-12T18:39:51.674Z,98266.47
2023-03-12T18:45:13.424Z,98267.38
2023-03-12T18:50:35.184Z,98276.91
2023-03-12T18:55:58.394Z,98269.81
2023-03-12T19:01:20.673Z,98266.63
2023-03-12T19:06:50.702Z,98257.13
2023-03-12T19:12:13.105Z,98258.78
2023-03-12T19:17:34.981Z,98257.91
2023-03-12T19:22:56.729Z,98268.63
2023-03-12T19:28:18.564Z,98279.06
2023-03-12T19:33:41.564Z,98279.06
2023-03-12T19:39:06.741Z,98269.16
2023-03-12T19:44:36.227Z,98270.47
2023-03-12T19:49:57.967Z,98285.66
2023-03-12T19:55:19.889Z,98293.78
2023-03-12T20:00:42.697Z,98287.03
2023-03-12T20:06:08.013Z,98283.41
2023-03-12T20:11:29.942Z,98286.47
2023-03-12T20:16:52.380Z,98273.59
2023-03-12T20:22:14.572Z,98282.38
2023-03-12T20:27:36.769Z,98289.25
2023-03-12T20:32:58.831Z,98287.84
2023-03-12T20:38:20.595Z,98272.81
2023-03-12T20:43:42.947Z,98276.78
2023-03-12T20:49:04.773Z,98280.38
2023-03-12T20:54:27.441Z,98280.69
2023-03-12T20:59:49.224Z,98289.97
2023-03-12T21:05:11.468Z,98290.72
2023-03-12T21:10:37.227Z,98287.22
2023-03-12T21:15:59.233Z,98281.94
2023-03-12T21:21:20.999Z,98281.47
2023-03-12T21:26:42.814Z,98286.38
2023-03-12T21:32:04.729Z,98274.38
2023-03-12T21:37:26.840Z,98264.78
2023-03-12T21:42:48.621Z,98266.28
2023-03-12T21:48:10.360Z,98263.78
2023-03-12T21:53:32.163Z,98267.28
2023-03-12T21:58:58.132Z,98257.97
2023-03-12T22:04:20.699Z,98255.53
2023-03-12T22:09:42.406Z,98250.84
2023-03-12T22:15:06.401Z,98250.59
2023-03-12T22:20:28.170Z,98234.03
2023-03-12T22:25:50.312Z,98227.22
2023-03-12T22:31:12.112Z,98220.50
2023-03-12T22:36:33.922Z,98208.34
2023-03-12T22:41:55.693Z,98196.34
2023-03-12T22:47:17.446Z,98185.53
2023-03-12T22:52:39.575Z,98180.13
2023-03-12T22:58:01.265Z,98177.25
2023-03-12T23:03:22.988Z,98156.31
2023-03-12T23:08:47.462Z,98155.16
2023-03-12T23:14:09.586Z,98148.28
2023-03-12T23:19:34.451Z,98160.03
2023-03-12T23:24:56.187Z,98161.66
2023-03-12T23:30:18.009Z,98155.50
2023-03-12T23:35:39.776Z,98160.06
2023-03-12T23:41:07.107Z,98151.72
2023-03-12T23:46:29.521Z,98155.53
2023-03-12T23:51:51.265Z,98150.25
2023-03-12T23:57:13.045Z,98148.53
